Time;durP1;ratioP1;P1;durP2;ratioP2;P2;SDS_P1;SDS_P2;PMS_P1;PMS_P2;Temp;Humidity;BMP_temperature;BMP_pressure;BME280_temperature;BME280_humidity;BME280_pressure;Samples;Min_cycle;Max_cycle;Signal;HPM_P1;HPM_P2
2023/11/21 00:00:15;;;;;;;1.17;0.80;;;;;;;11.39;48.45;98604.44;4973166;28;20023;-74
2023/11/21 00:02:41;;;;;;;2.22;0.80;;;;;;;11.38;48.58;98610.59;4972987;28;20074;-74
2023/11/21 00:05:09;;;;;;;1.80;0.90;;;;;;;11.39;48.75;98619.28;4972709;28;20038;-75
2023/11/21 00:07:36;;;;;;;1.83;0.68;;;;;;;11.34;48.61;98618.84;4972691;28;20039;-73
2023/11/21 00:10:02;;;;;;;2.30;0.93;;;;;;;11.34;48.53;98627.50;4972874;28;20041;-76
2023/11/21 00:12:29;;;;;;;2.05;0.85;;;;;;;11.28;48.88;98620.16;4972986;28;20498;-74
2023/11/21 00:14:55;;;;;;;1.30;0.60;;;;;;;11.31;48.55;98625.13;4973913;28;20039;-75
2023/11/21 00:17:20;;;;;;;1.55;0.80;;;;;;;11.32;48.61;98626.81;4973007;28;20041;-74
2023/11/21 00:19:45;;;;;;;0.68;0.40;;;;;;;11.32;48.51;98631.19;4988683;28;20045;-74
2023/11/21 00:22:11;;;;;;;1.80;0.77;;;;;;;11.32;48.84;98633.78;4973631;28;20061;-74
2023/11/21 00:24:36;;;;;;;2.03;0.80;;;;;;;11.30;48.82;98627.88;4972940;28;20030;-73
2023/11/21 00:27:02;;;;;;;1.45;0.68;;;;;;;11.29;48.85;98624.44;4973774;28;20035;-74
2023/11/21 00:29:27;;;;;;;2.10;0.93;;;;;;;11.21;48.92;98613.75;4972489;28;20033;-74
2023/11/21 00:31:53;;;;;;;1.60;0.80;;;;;;;11.27;48.59;98625.50;4972591;28;20030;-74
2023/11/21 00:34:19;;;;;;;1.52;0.70;;;;;;;11.25;48.59;98619.59;4956254;28;20039;-74
2023/11/21 00:36:45;;;;;;;2.85;0.90;;;;;;;11.22;48.88;98618.03;4973317;28;20032;-74
2023/11/21 00:39:11;;;;;;;2.40;0.68;;;;;;;11.19;48.59;98607.84;4956832;28;20465;-73
2023/11/21 00:41:37;;;;;;;2.85;0.60;;;;;;;11.20;48.94;98620.78;4972231;28;20122;-74
2023/11/21 00:44:03;;;;;;;1.50;0.70;;;;;;;11.19;48.61;98620.91;4972389;28;20105;-74
2023/11/21 00:46:29;;;;;;;1.55;0.70;;;;;;;11.19;48.87;98634.78;4973471;28;20035;-75
2023/11/21 00:48:55;;;;;;;1.45;0.68;;;;;;;11.17;48.87;98620.19;4988210;28;20102;-74
2023/11/21 00:51:21;;;;;;;1.10;0.55;;;;;;;11.10;48.91;98616.41;4973445;28;20030;-74
2023/11/21 00:53:47;;;;;;;1.92;0.60;;;;;;;11.12;48.95;98628.41;4971705;28;20027;-72
2023/11/21 00:56:13;;;;;;;1.30;0.60;;;;;;;11.11;48.65;98618.91;4972023;28;20043;-73
2023/11/21 00:58:39;;;;;;;1.20;0.63;;;;;;;11.06;48.81;98610.59;4956361;28;20414;-72
2023/11/21 01:01:04;;;;;;;2.78;0.95;;;;;;;11.12;49.03;98625.78;4988113;28;20043;-74
2023/11/21 01:03:30;;;;;;;1.48;0.80;;;;;;;11.09;48.80;98620.81;4972053;28;20038;-73
2023/11/21 01:05:55;;;;;;;1.30;0.50;;;;;;;11.10;48.90;98619.88;4972231;28;20046;-73
2023/11/21 01:08:21;;;;;;;1.13;0.60;;;;;;;11.04;48.86;98615.97;4972135;28;20483;-74
2023/11/21 01:10:46;;;;;;;1.52;0.70;;;;;;;11.04;48.94;98623.78;4971994;28;20030;-74
2023/11/21 01:13:15;;;;;;;2.40;0.70;;;;;;;11.08;48.98;98628.78;4955853;28;20089;-74
2023/11/21 01:15:41;;;;;;;1.73;0.70;;;;;;;11.04;48.76;98621.19;4972126;28;20454;-73
2023/11/21 01:18:08;;;;;;;2.15;0.80;;;;;;;11.04;49.11;98629.00;4971950;28;20541;-74
2023/11/21 01:20:34;;;;;;;1.58;0.60;;;;;;;11.04;49.10;98625.59;4971951;28;20462;-73
2023/11/21 01:22:59;;;;;;;1.50;0.70;;;;;;;11.02;48.97;98611.78;4971714;28;20077;-73
2023/11/21 01:25:25;;;;;;;1.10;0.60;;;;;;;11.00;48.99;98611.09;4971879;28;20039;-74
2023/11/21 01:27:51;;;;;;;1.75;0.70;;;;;;;10.98;49.08;98615.63;4971928;28;20406;-74
2023/11/21 01:30:17;;;;;;;2.28;0.60;;;;;;;10.93;49.12;98604.72;4956558;28;20043;-73
2023/11/21 01:32:43;;;;;;;1.40;0.60;;;;;;;10.94;49.10;98604.59;4971993;28;20133;-73
2023/11/21 01:35:10;;;;;;;2.78;0.70;;;;;;;10.92;49.22;98605.66;4987736;28;20043;-73
2023/11/21 01:37:35;;;;;;;1.23;0.70;;;;;;;10.95;49.09;98610.63;4987691;28;20111;-74
2023/11/21 01:40:03;;;;;;;1.38;0.60;;;;;;;10.93;48.99;98610.75;4971783;28;20043;-73
2023/11/21 01:42:29;;;;;;;1.35;0.63;;;;;;;10.91;49.03;98611.81;4972348;28;20031;-73
2023/11/21 01:44:54;;;;;;;1.02;0.60;;;;;;;10.89;49.03;98611.94;4971602;28;20552;-74
2023/11/21 01:47:21;;;;;;;1.38;0.60;;;;;;;10.83;49.00;98608.06;4971744;28;20034;-73
2023/11/21 01:49:46;;;;;;;1.40;0.82;;;;;;;10.81;49.33;98609.94;4972200;28;20059;-74
2023/11/21 01:52:12;;;;;;;1.67;0.90;;;;;;;10.83;49.04;98615.91;4971716;28;20029;-73
2023/11/21 01:54:37;;;;;;;1.33;0.85;;;;;;;10.82;49.34;98613.41;4971770;28;20046;-74
2023/11/21 01:57:06;;;;;;;2.63;1.50;;;;;;;10.79;49.08;98608.44;4955540;28;20097;-73
2023/11/21 01:59:37;;;;;;;1.92;1.10;;;;;;;10.77;49.23;98605.09;4971511;28;20114;-72
2023/11/21 02:02:06;;;;;;;2.33;1.10;;;;;;;10.76;49.33;98606.06;4955512;28;20038;-73
2023/11/21 02:04:34;;;;;;;;;;;;;;;10.74;49.21;98606.19;4972003;28;20051;-73
2023/11/21 02:07:00;;;;;;;1.90;0.93;;;;;;;10.70;49.37;98609.16;4974923;28;19910;-73
2023/11/21 02:09:30;;;;;;;2.20;1.17;;;;;;;10.68;49.50;98606.66;4991384;28;20375;-73
2023/11/21 02:11:56;;;;;;;2.00;1.20;;;;;;;10.67;49.47;98611.06;4990682;28;20023;-74
2023/11/21 02:14:22;;;;;;;2.25;1.10;;;;;;;10.64;49.41;98608.69;4991124;28;20023;-76
2023/11/21 02:16:50;;;;;;;2.38;1.02;;;;;;;10.64;49.57;98606.06;4975362;28;20030;-75
2023/11/21 02:19:19;;;;;;;2.00;1.10;;;;;;;10.54;49.54;98593.88;4974959;28;20065;-74
2023/11/21 02:21:45;;;;;;;2.25;1.10;;;;;;;10.56;49.48;98598.00;4974618;28;20058;-74
2023/11/21 02:24:11;;;;;;;1.85;1.08;;;;;;;10.54;49.49;98601.69;4974784;28;20035;-76
2023/11/21 02:26:36;;;;;;;1.73;0.98;;;;;;;10.56;49.55;98607.59;4991230;28;20061;-75
2023/11/21 02:29:04;;;;;;;2.25;1.13;;;;;;;10.54;49.60;98605.13;4974938;28;20525;-74
2023/11/21 02:31:30;;;;;;;2.15;1.00;;;;;;;10.54;49.82;98612.94;4990616;28;20034;-73
2023/11/21 02:33:55;;;;;;;1.40;0.90;;;;;;;10.52;49.69;98612.25;4974622;28;20031;-73
2023/11/21 02:36:21;;;;;;;1.38;0.80;;;;;;;10.50;49.81;98606.31;4976040;28;20473;-73
2023/11/21 02:38:47;;;;;;;1.70;1.08;;;;;;;10.46;49.75;98607.50;4974566;28;20085;-73
2023/11/21 02:41:13;;;;;;;3.05;1.08;;;;;;;10.46;49.61;98600.50;4975649;28;20039;-73
2023/11/21 02:43:38;;;;;;;2.30;1.02;;;;;;;10.41;49.86;98594.81;4974436;28;20035;-73
2023/11/21 02:46:04;;;;;;;2.30;1.08;;;;;;;10.40;49.89;98587.09;4990538;28;20430;-74
2023/11/21 02:48:30;;;;;;;2.15;1.10;;;;;;;10.34;49.69;98579.75;4975551;28;20049;-73
2023/11/21 02:50:56;;;;;;;1.98;1.00;;;;;;;10.36;49.81;98581.31;4974249;28;20082;-73
2023/11/21 02:53:21;;;;;;;3.10;1.20;;;;;;;10.37;49.83;98587.34;4974372;28;20117;-74
2023/11/21 02:55:47;;;;;;;2.67;0.88;;;;;;;10.38;49.91;98599.44;4975421;28;20030;-73
2023/11/21 02:58:12;;;;;;;1.45;0.70;;;;;;;10.31;49.83;98589.44;4975357;28;20533;-74
2023/11/21 03:00:40;;;;;;;2.60;0.88;;;;;;;10.29;50.04;98582.69;4974708;28;20042;-74
2023/11/21 03:03:05;;;;;;;2.35;1.10;;;;;;;10.34;49.91;98593.63;4990220;28;20090;-73
2023/11/21 03:05:31;;;;;;;1.70;0.90;;;;;;;10.32;49.89;98580.69;4974203;28;20050;-73
2023/11/21 03:07:56;;;;;;;1.38;0.80;;;;;;;10.34;49.82;98592.78;4990237;28;20104;-73
2023/11/21 03:10:22;;;;;;;2.53;1.10;;;;;;;10.27;49.85;98587.19;4973790;28;20058;-73
2023/11/21 03:12:47;;;;;;;2.25;0.98;;;;;;;10.30;49.96;98597.41;4989793;28;20039;-73
2023/11/21 03:15:13;;;;;;;1.52;1.00;;;;;;;10.29;49.94;98596.56;4989815;28;20043;-73
2023/11/21 03:17:38;;;;;;;1.52;1.00;;;;;;;10.25;50.09;98600.38;4973873;28;20379;-73
2023/11/21 03:20:04;;;;;;;2.55;1.20;;;;;;;10.28;49.95;98615.78;4973899;28;20034;-73
2023/11/21 03:22:30;;;;;;;1.90;1.10;;;;;;;10.25;49.94;98602.97;4973515;28;20054;-73
2023/11/21 03:24:55;;;;;;;2.00;1.10;;;;;;;10.25;49.77;98613.41;4973914;28;20085;-73
2023/11/21 03:27:21;;;;;;;2.75;1.10;;;;;;;10.24;50.09;98603.91;4989706;28;20035;-73
2023/11/21 03:29:47;;;;;;;1.98;0.98;;;;;;;10.22;50.03;98607.59;4973312;28;20027;-73
2023/11/21 03:32:13;;;;;;;3.10;0.90;;;;;;;10.21;49.98;98608.53;4957395;28;20062;-73
2023/11/21 03:34:56;;;;;;;1.95;1.00;;;;;;;10.19;49.83;98606.03;4989506;28;20043;-73
2023/11/21 03:37:22;;;;;;;1.42;0.85;;;;;;;10.19;50.07;98607.84;4973319;28;20077;-73
2023/11/21 03:39:47;;;;;;;4.97;1.10;;;;;;;10.18;50.13;98614.00;4989433;28;20062;-73
2023/11/21 03:42:13;;;;;;;3.15;1.00;;;;;;;10.16;50.23;98611.50;4956790;28;20102;-73
2023/11/21 03:44:38;;;;;;;2.25;1.10;;;;;;;10.14;50.10;98609.00;4974087;28;20508;-73
2023/11/21 03:47:03;;;;;;;3.38;1.20;;;;;;;10.09;50.15;98611.13;4972981;28;20038;-73
2023/11/21 03:49:29;;;;;;;1.92;0.75;;;;;;;10.13;50.19;98612.56;4989208;28;20033;-73
2023/11/21 03:51:55;;;;;;;2.17;1.00;;;;;;;10.12;50.47;98607.44;4972860;28;20031;-73
2023/11/21 03:54:21;;;;;;;3.50;1.00;;;;;;;10.11;50.30;98611.03;4988960;28;20026;-74
2023/11/21 03:56:46;;;;;;;2.30;1.00;;;;;;;10.10;50.24;98618.03;4972827;28;20046;-73
2023/11/21 03:59:12;;;;;;;1.88;1.10;;;;;;;10.11;50.45;98617.06;4988729;28;20415;-74
2023/11/21 04:01:37;;;;;;;2.33;1.23;;;;;;;10.10;50.29;98612.81;4972689;28;20038;-74
2023/11/21 04:04:04;;;;;;;2.60;1.20;;;;;;;10.07;50.46;98612.19;4972673;28;20588;-74
2023/11/21 04:06:29;;;;;;;2.28;1.33;;;;;;;10.09;50.46;98623.38;4972733;28;20030;-74
2023/11/21 04:08:55;;;;;;;2.00;1.20;;;;;;;10.07;50.54;98620.03;4972586;28;20528;-73
2023/11/21 04:11:20;;;;;;;2.00;1.20;;;;;;;10.07;50.43;98625.25;4988825;28;20035;-74
2023/11/21 04:13:46;;;;;;;2.38;1.33;;;;;;;10.07;50.49;98630.44;4972490;28;20406;-74
2023/11/21 04:16:12;;;;;;;2.38;1.35;;;;;;;10.03;50.73;98627.25;4988812;28;20418;-73
2023/11/21 04:18:38;;;;;;;2.45;1.27;;;;;;;9.99;50.53;98615.38;4972294;28;20027;-73
2023/11/21 04:21:05;;;;;;;2.10;1.27;;;;;;;10.06;50.31;98634.84;4973513;28;20030;-74
2023/11/21 04:23:33;;;;;;;1.90;1.20;;;;;;;10.05;50.46;98624.53;4972266;28;20035;-74
2023/11/21 04:25:59;;;;;;;2.28;1.38;;;;;;;10.03;50.37;98622.03;4973862;28;20446;-73
2023/11/21 04:28:24;;;;;;;4.03;1.42;;;;;;;10.03;50.45;98624.66;4988084;28;20105;-74
2023/11/21 04:30:50;;;;;;;2.40;1.30;;;;;;;10.01;50.72;98623.94;4972667;28;20506;-75
2023/11/21 04:33:16;;;;;;;2.92;1.30;;;;;;;9.97;50.68;98622.50;4956310;28;20086;-74
2023/11/21 04:35:41;;;;;;;2.45;1.30;;;;;;;9.97;50.67;98614.69;4956220;28;20407;-73
2023/11/21 04:38:07;;;;;;;2.50;1.20;;;;;;;9.98;50.66;98621.56;4972258;28;20038;-73
2023/11/21 04:40:32;;;;;;;2.28;1.17;;;;;;;9.91;50.68;98610.75;4956564;28;20042;-74
2023/11/21 04:42:58;;;;;;;2.17;1.10;;;;;;;9.96;50.87;98623.44;4972151;28;20045;-72
2023/11/21 04:45:23;;;;;;;3.08;1.33;;;;;;;9.93;50.71;98616.69;4972476;28;20478;-73
2023/11/21 04:47:49;;;;;;;1.77;1.20;;;;;;;9.93;50.61;98621.06;4972117;28;20039;-74
2023/11/21 04:50:15;;;;;;;1.60;1.02;;;;;;;9.86;50.71;98610.25;4988281;28;20034;-77
2023/11/21 04:52:40;;;;;;;2.55;1.20;;;;;;;9.91;53.14;98618.56;4955893;28;20049;-74
2023/11/21 04:55:09;;;;;;;1.30;0.85;;;;;;;9.91;52.20;98618.56;4973276;28;20471;-74
2023/11/21 04:57:35;;;;;;;1.95;1.08;;;;;;;9.90;52.62;98619.53;4971988;28;20027;-73
2023/11/21 05:00:01;;;;;;;2.30;1.17;;;;;;;9.96;52.68;98634.72;4988171;28;20177;-74
2023/11/21 05:02:26;;;;;;;2.78;1.25;;;;;;;9.96;52.48;98632.09;4972371;28;20038;-74
2023/11/21 05:04:53;;;;;;;1.40;0.90;;;;;;;9.95;52.30;98624.41;4973131;28;20114;-72
2023/11/21 05:07:18;;;;;;;1.70;0.95;;;;;;;9.95;52.19;98629.63;4971898;28;20039;-72
2023/11/21 05:09:45;;;;;;;1.85;1.05;;;;;;;9.95;52.19;98632.22;4972953;28;20137;-74
2023/11/21 05:12:11;;;;;;;2.30;1.08;;;;;;;9.94;52.02;98644.41;4955954;28;20031;-71
2023/11/21 05:14:37;;;;;;;1.67;1.00;;;;;;;9.91;52.30;98649.03;4971943;28;20534;-72
2023/11/21 05:17:04;;;;;;;1.55;0.95;;;;;;;10.01;52.46;98659.59;4988027;28;20034;-78
2023/11/21 05:19:29;;;;;;;3.72;1.20;;;;;;;9.99;52.45;98664.94;4956681;28;20066;-76
2023/11/21 05:21:55;;;;;;;3.42;1.25;;;;;;;10.07;52.41;98673.03;4955647;28;20084;-76
2023/11/21 05:24:20;;;;;;;2.40;1.20;;;;;;;10.11;52.37;98671.84;4972095;28;20402;-78
2023/11/21 05:26:46;;;;;;;3.20;1.33;;;;;;;10.15;52.17;98667.22;4988519;28;20072;-77
2023/11/21 05:29:11;;;;;;;2.53;1.10;;;;;;;10.28;51.78;98662.75;4971828;28;20038;-78
2023/11/21 05:31:37;;;;;;;2.40;1.20;;;;;;;10.39;51.61;98663.72;4987850;28;20054;-76
2023/11/21 05:34:05;;;;;;;2.35;1.10;;;;;;;10.51;51.42;98678.44;4971954;28;20458;-78
2023/11/21 05:36:30;;;;;;;2.58;1.20;;;;;;;10.54;51.14;98680.81;4955647;28;20093;-77
2023/11/21 05:38:56;;;;;;;1.88;1.10;;;;;;;10.56;51.28;98671.06;4972055;28;20463;-77
2023/11/21 05:41:21;;;;;;;2.08;1.20;;;;;;;10.64;50.70;98681.78;4991648;28;20066;-77
2023/11/21 05:43:47;;;;;;;1.95;0.85;;;;;;;10.72;50.70;98677.72;4975497;28;20074;-77
2023/11/21 05:46:13;;;;;;;2.00;1.23;;;;;;;11.45;49.10;98665.00;4991585;28;20031;-77
2023/11/21 05:48:39;;;;;;;2.92;1.50;;;;;;;11.91;48.38;98659.44;4975230;28;20062;-77
2023/11/21 05:51:06;;;;;;;3.28;1.45;;;;;;;11.82;48.42;98665.44;4975332;28;20035;-76
2023/11/21 05:53:32;;;;;;;2.67;1.60;;;;;;;11.72;48.52;98654.91;4959624;28;20035;-77
2023/11/21 05:55:57;;;;;;;2.60;1.38;;;;;;;11.74;48.77;98671.28;4959698;28;20552;-77
2023/11/21 05:58:23;;;;;;;2.28;1.30;;;;;;;11.71;48.30;98663.69;4975500;28;20035;-77
2023/11/21 06:00:49;;;;;;;3.70;1.55;;;;;;;11.74;48.30;98675.69;4991545;28;20553;-77
2023/11/21 06:03:14;;;;;;;3.40;1.40;;;;;;;11.70;48.50;98666.44;4959050;28;20134;-76
2023/11/21 06:05:40;;;;;;;2.33;1.33;;;;;;;11.69;48.37;98670.84;4975052;28;20042;-77
2023/11/21 06:08:07;;;;;;;2.80;1.70;;;;;;;11.73;48.59;98687.09;4991247;28;20031;-78
2023/11/21 06:10:32;;;;;;;4.03;1.17;;;;;;;11.75;48.48;98690.44;4975427;28;20509;-78
2023/11/21 06:12:58;;;;;;;3.60;1.83;;;;;;;11.75;48.44;98679.97;4991176;28;20066;-80
2023/11/21 06:15:23;;;;;;;2.47;1.42;;;;;;;11.82;48.48;98685.53;4974794;28;20039;-77
2023/11/21 06:17:52;;;;;;;2.60;1.50;;;;;;;11.85;48.13;98688.72;4991074;28;20140;-78
2023/11/21 06:20:18;;;;;;;4.53;1.65;;;;;;;11.89;48.00;98676.22;4991111;28;20502;-77
2023/11/21 06:22:46;;;;;;;2.67;1.50;;;;;;;11.99;47.89;98671.09;4958466;28;20529;-77
2023/11/21 06:25:12;;;;;;;5.97;2.15;;;;;;;12.10;47.48;98684.13;4974614;28;20030;-77
2023/11/21 06:27:47;;;;;;;3.22;1.73;;;;;;;12.28;47.09;98671.25;4974911;28;20097;-78
2023/11/21 06:30:13;;;;;;;3.15;1.63;;;;;;;12.57;46.60;98678.41;4974801;28;20023;-77
2023/11/21 06:32:42;;;;;;;3.50;1.70;;;;;;;12.54;46.48;98694.41;4974665;28;20031;-77
2023/11/21 06:35:09;;;;;;;6.05;2.05;;;;;;;12.72;46.39;98692.84;4958838;28;20462;-78
2023/11/21 06:37:35;;;;;;;3.87;1.73;;;;;;;13.62;44.37;98688.50;4974068;28;20046;-77
2023/11/21 06:40:00;;;;;;;2.80;1.63;;;;;;;13.97;43.67;98699.41;4974542;28;20274;-77
2023/11/21 06:42:26;;;;;;;3.40;1.77;;;;;;;14.97;41.78;98698.84;4974631;28;20034;-77
2023/11/21 06:44:53;;;;;;;2.67;1.45;;;;;;;16.28;40.02;98701.91;4974969;28;20034;-77
2023/11/21 06:47:20;;;;;;;5.10;1.90;;;;;;;17.09;38.72;98707.78;4974700;28;20517;-80
2023/11/21 06:49:47;;;;;;;4.53;1.90;;;;;;;17.30;38.42;98711.81;4958901;28;20042;-78
2023/11/21 06:52:13;;;;;;;4.20;1.60;;;;;;;17.52;38.17;98700.66;4973980;28;20031;-77
2023/11/21 06:54:39;;;;;;;5.75;2.10;;;;;;;18.06;37.43;98702.06;4974367;28;20410;-77
2023/11/21 06:57:04;;;;;;;8.02;1.92;;;;;;;18.67;36.85;98701.59;4958357;28;20022;-75
2023/11/21 06:59:30;;;;;;;2.83;1.70;;;;;;;19.06;36.35;98695.53;4990454;28;20031;-79
2023/11/21 07:01:55;;;;;;;3.03;1.70;;;;;;;19.54;36.05;98696.25;4974016;28;20027;-80
2023/11/21 07:04:21;;;;;;;3.45;1.80;;;;;;;20.02;35.39;98699.56;4974364;28;20046;-77
2023/11/21 07:06:46;;;;;;;3.97;1.90;;;;;;;20.45;34.89;98693.69;4974352;28;20114;-77
2023/11/21 07:09:12;;;;;;;3.50;1.80;;;;;;;20.93;34.29;98696.81;4974380;28;20399;-77
2023/11/21 07:11:41;;;;;;;3.33;1.60;;;;;;;21.48;33.92;98701.75;4958205;28;20428;-77
2023/11/21 07:14:09;;;;;;;3.72;1.70;;;;;;;22.07;33.16;98707.84;4989983;28;20031;-76
2023/11/21 07:16:37;;;;;;;;;;;;;;;22.29;33.19;98698.00;4958583;28;20450;-77
2023/11/21 07:19:08;;;;;;;2.42;1.50;;;;;;;22.58;32.55;98695.16;4974037;28;19910;-77
2023/11/21 07:21:34;;;;;;;4.20;2.03;;;;;;;22.91;32.54;98683.88;4958308;28;20400;-78
2023/11/21 07:24:01;;;;;;;3.65;2.03;;;;;;;23.04;32.05;98691.06;4974628;28;20034;-77
2023/11/21 07:26:27;;;;;;;6.68;2.08;;;;;;;23.46;31.75;98691.03;4975544;28;20125;-77
2023/11/21 07:28:52;;;;;;;5.50;2.05;;;;;;;23.70;31.47;98689.63;4959093;28;20102;-78
2023/11/21 07:31:19;;;;;;;5.15;2.25;;;;;;;23.96;31.17;98690.72;4990154;28;20470;-77
2023/11/21 07:33:49;;;;;;;5.95;2.25;;;;;;;24.36;30.92;98696.00;4973826;28;20122;-75
2023/11/21 07:36:15;;;;;;;4.18;1.90;;;;;;;24.51;30.56;98685.09;4958023;28;20066;-79
2023/11/21 07:38:41;;;;;;;6.72;2.05;;;;;;;24.81;30.25;98690.81;4975405;28;20031;-77
2023/11/21 07:41:10;;;;;;;3.80;1.77;;;;;;;25.16;29.89;98692.31;4974846;28;20027;-77
2023/11/21 07:43:35;;;;;;;6.47;2.10;;;;;;;25.42;29.67;98683.38;4973626;28;20124;-75
2023/11/21 07:46:04;;;;;;;4.00;2.20;;;;;;;25.82;29.20;98688.44;4973523;28;20089;-80
2023/11/21 07:48:33;;;;;;;4.97;1.85;;;;;;;26.05;28.62;98673.72;4973705;28;20105;-77
2023/11/21 07:50:58;;;;;;;4.05;1.80;;;;;;;26.36;28.26;98678.97;4973321;28;20035;-76
2023/11/21 07:53:29;;;;;;;6.00;2.00;;;;;;;26.39;28.40;98672.34;4973357;28;20497;-77
2023/11/21 07:55:55;;;;;;;4.97;1.90;;;;;;;26.68;27.92;98680.72;4989150;28;20490;-77
2023/11/21 07:58:21;;;;;;;4.32;2.00;;;;;;;26.87;27.95;98673.50;4989487;28;20031;-75
2023/11/21 08:00:46;;;;;;;5.15;2.28;;;;;;;27.12;27.66;98680.59;4973251;28;20056;-78
2023/11/21 08:03:15;;;;;;;4.10;1.92;;;;;;;27.29;27.39;98670.06;4988439;28;20098;-77
2023/11/21 08:05:41;;;;;;;4.30;1.80;;;;;;;27.28;27.14;98663.91;4973201;28;20490;-77
2023/11/21 08:08:07;;;;;;;4.18;2.00;;;;;;;27.34;27.09;98664.88;4973109;28;20037;-77
2023/11/21 08:10:33;;;;;;;6.63;2.08;;;;;;;27.50;26.94;98669.59;4989400;28;20085;-78
2023/11/21 08:12:58;;;;;;;3.65;1.83;;;;;;;27.63;26.94;98665.91;4973144;28;20033;-77
2023/11/21 08:15:24;;;;;;;5.30;2.35;;;;;;;27.76;26.95;98663.00;4989241;28;20034;-79
2023/11/21 08:17:49;;;;;;;4.93;2.45;;;;;;;27.89;26.78;98659.28;4972823;28;20101;-78
2023/11/21 08:20:16;;;;;;;5.22;2.20;;;;;;;28.01;26.76;98661.22;4973129;28;20054;-78
2023/11/21 08:22:42;;;;;;;4.47;2.00;;;;;;;28.15;26.80;98658.06;4972600;28;20069;-76
2023/11/21 08:25:08;;;;;;;6.32;2.30;;;;;;;28.34;26.31;98657.94;4988899;28;20030;-76
2023/11/21 08:27:34;;;;;;;3.90;2.10;;;;;;;28.51;26.22;98658.00;4973007;28;20035;-76
2023/11/21 08:30:00;;;;;;;4.90;2.25;;;;;;;28.57;25.80;98648.22;4989394;28;20109;-78
2023/11/21 08:32:26;;;;;;;7.25;2.60;;;;;;;28.62;25.91;98661.75;4972919;28;20098;-77
2023/11/21 08:34:51;;;;;;;5.80;2.63;;;;;;;28.83;25.91;98663.03;4956572;28;20035;-79
2023/11/21 08:37:17;;;;;;;5.35;2.72;;;;;;;28.83;25.75;98657.66;4973885;28;20467;-76
2023/11/21 08:39:48;;;;;;;5.95;2.38;;;;;;;29.22;25.53;98655.19;4956514;28;20121;-73
2023/11/21 08:42:14;;;;;;;5.60;2.60;;;;;;;29.47;25.43;98638.69;4972445;28;20454;-75
2023/11/21 08:44:40;;;;;;;4.90;2.50;;;;;;;29.80;24.75;98642.50;4988614;28;20030;-75
2023/11/21 08:47:06;;;;;;;4.18;2.10;;;;;;;30.10;24.69;98642.13;4956267;28;20049;-76
2023/11/21 08:49:32;;;;;;;5.18;2.38;;;;;;;30.25;24.62;98638.03;4972427;28;20034;-78
2023/11/21 08:51:59;;;;;;;4.43;2.22;;;;;;;30.51;24.34;98628.44;4972658;28;20054;-75
2023/11/21 08:54:25;;;;;;;5.93;2.50;;;;;;;30.83;23.81;98633.13;4972664;28;20054;-78
2023/11/21 08:56:52;;;;;;;5.20;2.60;;;;;;;31.13;23.42;98624.59;4972598;28;20042;-79
2023/11/21 08:59:17;;;;;;;3.92;1.85;;;;;;;31.51;23.23;98627.38;4972835;28;20050;-78
2023/11/21 09:01:43;;;;;;;6.15;2.22;;;;;;;31.97;22.20;98611.53;4956133;28;20486;-77
2023/11/21 09:04:08;;;;;;;10.57;2.45;;;;;;;32.57;21.55;98616.75;4972408;28;20046;-76
2023/11/21 09:06:35;;;;;;;5.20;2.30;;;;;;;33.14;21.16;98620.44;4988328;28;20046;-76
2023/11/21 09:09:00;;;;;;;5.05;1.90;;;;;;;33.45;20.74;98604.28;4973581;28;20035;-78
2023/11/21 09:11:31;;;;;;;5.03;1.88;;;;;;;33.47;20.73;98607.53;4972392;28;20049;-77
2023/11/21 09:13:57;;;;;;;5.18;1.98;;;;;;;33.30;20.93;98600.47;4972730;28;20502;-78
2023/11/21 09:16:23;;;;;;;5.28;2.13;;;;;;;32.97;21.40;98599.03;4960536;28;20479;-77
2023/11/21 09:18:48;;;;;;;5.10;1.70;;;;;;;32.49;21.71;98601.06;4976061;28;20053;-77
2023/11/21 09:21:14;;;;;;;4.38;1.83;;;;;;;32.19;21.97;98599.81;4959688;28;20082;-75
2023/11/21 09:23:39;;;;;;;5.05;1.80;;;;;;;32.47;21.79;98595.91;4976538;28;20039;-76
2023/11/21 09:26:05;;;;;;;3.72;1.77;;;;;;;33.17;21.41;98582.06;4976315;28;20498;-77
2023/11/21 09:28:31;;;;;;;4.55;1.55;;;;;;;33.17;21.36;98587.47;4992516;28;20114;-75
2023/11/21 09:30:56;;;;;;;4.65;1.60;;;;;;;33.41;20.77;98579.66;4975775;28;20170;-76
2023/11/21 09:33:24;;;;;;;4.20;1.75;;;;;;;34.07;20.15;98576.06;4975569;28;20066;-75
2023/11/21 09:35:51;;;;;;;4.82;1.70;;;;;;;34.10;20.10;98569.28;4991622;28;20082;-77
2023/11/21 09:38:16;;;;;;;2.75;1.48;;;;;;;34.47;19.63;98567.28;4960101;28;20038;-76
2023/11/21 09:40:42;;;;;;;3.28;1.73;;;;;;;34.96;19.13;98564.59;4959860;28;20043;-78
2023/11/21 09:43:17;;;;;;;3.65;1.52;;;;;;;35.27;18.18;98558.16;4991930;28;20031;-76
2023/11/21 09:45:47;;;;;;;2.78;1.58;;;;;;;35.31;18.70;98549.16;4976005;28;20049;-76
2023/11/21 09:48:14;;;;;;;3.20;1.52;;;;;;;35.01;18.92;98555.59;4959846;28;20375;-78
2023/11/21 09:50:41;;;;;;;3.43;1.60;;;;;;;34.24;19.57;98542.47;4959645;28;20079;-77
2023/11/21 09:53:20;;;;;;;3.38;1.55;;;;;;;33.83;20.03;98545.28;4959859;28;20149;-78
2023/11/21 09:55:53;;;;;;;2.88;1.20;;;;;;;33.30;20.45;98540.97;4975395;28;20041;-78
2023/11/21 09:58:19;;;;;;;3.08;1.50;;;;;;;32.96;21.13;98537.97;4959069;28;20047;-76
2023/11/21 10:00:48;;;;;;;2.80;1.40;;;;;;;32.59;21.47;98533.53;4959069;28;20031;-76
2023/11/21 10:03:14;;;;;;;2.33;1.30;;;;;;;32.27;21.94;98538.00;4974859;28;20042;-78
2023/11/21 10:05:40;;;;;;;2.20;1.20;;;;;;;31.86;22.24;98534.28;4959203;28;20134;-77
2023/11/21 10:08:09;;;;;;;4.03;1.25;;;;;;;31.35;22.99;98529.34;4959665;28;20170;-76
2023/11/21 10:10:36;;;;;;;2.55;1.40;;;;;;;30.97;23.29;98520.41;4975241;28;20023;-75
2023/11/21 10:13:09;;;;;;;2.75;1.17;;;;;;;30.58;23.74;98518.63;4974978;28;20033;-76
2023/11/21 10:15:36;;;;;;;3.55;1.42;;;;;;;30.34;24.24;98523.44;4959752;28;20499;-76
2023/11/21 10:18:06;;;;;;;3.20;1.15;;;;;;;30.06;24.38;98519.06;4991361;28;20068;-77
2023/11/21 10:20:37;;;;;;;2.70;1.40;;;;;;;29.62;25.01;98514.44;4974881;28;20058;-78
2023/11/21 10:23:03;;;;;;;3.35;1.00;;;;;;;29.32;25.50;98510.22;4974766;28;20051;-78
2023/11/21 10:25:29;;;;;;;3.40;1.10;;;;;;;28.99;25.87;98503.72;4958298;28;20041;-77
2023/11/21 10:28:05;;;;;;;3.13;1.42;;;;;;;28.66;26.29;98504.50;4974962;28;20043;-78
2023/11/21 10:30:38;;;;;;;3.28;1.40;;;;;;;28.45;26.81;98500.56;4975315;28;20027;-76
2023/11/21 10:33:04;;;;;;;3.40;1.80;;;;;;;28.23;27.37;98509.28;4958757;28;20498;-78
2023/11/21 10:35:44;;;;;;;2.55;1.40;;;;;;;27.94;27.52;98501.19;4974630;28;20098;-78
2023/11/21 10:38:13;;;;;;;2.95;1.30;;;;;;;27.70;27.74;98504.91;4974717;28;20122;-77
2023/11/21 10:40:42;;;;;;;2.42;1.30;;;;;;;27.38;28.47;98497.22;4958874;28;20047;-79
2023/11/21 10:43:12;;;;;;;4.68;1.40;;;;;;;26.99;28.61;98489.56;4975193;28;20038;-75
2023/11/21 10:45:38;;;;;;;3.42;1.42;;;;;;;26.74;29.01;98492.41;4975039;28;20486;-76
2023/11/21 10:48:16;;;;;;;3.10;1.38;;;;;;;26.38;29.71;98486.06;4975727;28;20039;-77
2023/11/21 10:50:45;;;;;;;2.95;1.40;;;;;;;26.03;30.42;98483.19;4974484;28;20031;-75
2023/11/21 10:53:13;;;;;;;4.18;1.50;;;;;;;25.74;30.58;98482.88;4990725;28;20039;-76
2023/11/21 10:55:39;;;;;;;2.58;1.35;;;;;;;25.49;30.92;98477.56;4974500;28;20026;-78
2023/11/21 10:58:05;;;;;;;3.00;1.33;;;;;;;25.21;31.22;98482.31;4958313;28;20061;-76
2023/11/21 11:00:32;;;;;;;4.10;1.58;;;;;;;24.94;31.92;98481.69;4990286;28;20033;-75
2023/11/21 11:02:59;;;;;;;3.10;1.77;;;;;;;24.64;32.41;98476.97;4957733;28;20039;-75
2023/11/21 11:05:35;;;;;;;4.30;1.52;;;;;;;24.41;32.24;98472.13;4974300;28;20372;-77
2023/11/21 11:08:05;;;;;;;3.10;1.50;;;;;;;24.20;32.71;98470.59;4974031;28;20034;-76
2023/11/21 11:10:31;;;;;;;2.78;1.38;;;;;;;23.93;32.95;98459.22;4973900;28;20057;-76
2023/11/21 11:12:57;;;;;;;2.58;1.50;;;;;;;23.73;33.61;98464.56;4957898;28;20023;-76
2023/11/21 11:15:23;;;;;;;3.85;1.60;;;;;;;23.55;33.77;98458.03;4974293;28;20058;-76
2023/11/21 11:17:49;;;;;;;2.60;1.50;;;;;;;23.33;34.03;98462.78;4973863;28;20062;-75
2023/11/21 11:20:16;;;;;;;2.83;1.30;;;;;;;23.18;34.51;98452.31;4973714;28;20109;-78
2023/11/21 11:23:04;;;;;;;2.63;1.30;;;;;;;23.10;34.60;98450.72;4957494;28;20112;-75
2023/11/21 11:26:07;;;;;;;3.25;1.58;;;;;;;23.00;34.85;98444.13;4972074;28;20459;-75
2023/11/21 11:29:10;;;;;;;3.70;1.60;;;;;;;22.86;34.55;98444.09;4973652;28;20478;-78
2023/11/21 11:31:54;;;;;;;4.78;1.42;;;;;;;22.72;35.04;98435.31;4991967;28;20117;-76